Time;durP1;ratioP1;P1;durP2;ratioP2;P2;SDS_P1;SDS_P2;PMS_P1;PMS_P2;Temp;Humidity;BMP_temperature;BMP_pressure;BME280_temperature;BME280_humidity;BME280_pressure;Samples;Min_cycle;Max_cycle;Signal;HPM_P1;HPM_P2
2023/03/28 00:01:11;;;;;;;;;;;;;;;7.71;100.00;100361.56;4950997;28;19918;-78
2023/03/28 00:03:39;;;;;;;;;;;;;;;7.72;100.00;100359.78;4929075;28;19918;-78
2023/03/28 00:06:17;;;;;;;;;;;;;;;7.71;100.00;100352.84;4931175;29;20005;-78
2023/03/28 00:08:46;;;;;;;;;;;;;;;7.74;100.00;100363.94;4950177;28;19921;-78
2023/03/28 00:11:19;;;;;;;;;;;;;;;7.74;100.00;100356.03;4929272;28;19962;-78
2023/03/28 00:13:47;;;;;;;;;;;;;;;7.74;100.00;100358.66;4945533;28;19974;-78
2023/03/28 00:16:15;;;;;;;;;;;;;;;7.73;100.00;100361.44;4952174;28;19914;-78
2023/03/28 00:18:43;;;;;;;;;;;;;;;7.74;100.00;100352.59;4947951;28;19926;-79
2023/03/28 00:21:28;;;;;;;;;;;;;;;7.74;100.00;100348.16;4951580;28;19933;-79
2023/03/28 00:24:00;;;;;;;;;;;;;;;7.74;100.00;100353.41;4951968;28;19914;-78
2023/03/28 00:26:31;;;;;;;;;;;;;;;7.75;100.00;100354.25;4948626;28;19914;-78
2023/03/28 00:29:02;;;;;;;;;;;;;;;7.72;100.00;100338.72;4934375;28;20373;-78
2023/03/28 00:31:33;;;;;;;;;;;;;;;7.70;100.00;100336.22;4934637;28;19973;-78
2023/03/28 00:34:02;;;;;;;;;;;;;;;7.70;100.00;100330.97;4934046;29;19918;-78
2023/03/28 00:36:31;;;;;;;;;;;;;;;7.69;100.00;100326.66;4935475;29;19941;-79
2023/03/28 00:39:00;;;;;;;;;;;;;;;7.71;100.00;100318.66;4933346;28;19918;-78
2023/03/28 00:41:31;;;;;;;;;;;;;;;7.64;100.00;100313.06;4952197;28;20370;-78
2023/03/28 00:44:02;;;;;;;;;;;;;;;7.57;100.00;100315.34;4949369;28;19918;-78
2023/03/28 00:46:34;;;;;;;;;;;;;;;7.58;100.00;100306.50;4942661;28;19968;-78
2023/03/28 00:49:05;;;;;;;;;;;;;;;7.55;100.00;100306.75;4927105;28;19926;-79
2023/03/28 00:51:38;;;;;;;;;;;;;;;7.54;100.00;100313.84;4958034;28;19918;-79
2023/03/28 00:54:10;;;;;;;;;;;;;;;7.47;100.00;100315.28;4948625;28;19965;-78
2023/03/28 00:56:42;;;;;;;;;;;;;;;7.48;100.00;100306.44;4924437;29;20268;-78
2023/03/28 00:59:13;;;;;;;;;;;;;;;7.47;100.00;100296.88;4949492;28;20009;-78
2023/03/28 01:01:43;;;;;;;;;;;;;;;7.44;100.00;100281.34;4933350;28;19974;-77
2023/03/28 01:04:10;;;;;;;;;;;;;;;7.41;100.00;100269.31;4971603;28;19921;-78
2023/03/28 01:06:47;;;;;;;;;;;;;;;7.37;100.00;100259.16;4962887;28;19943;-78
2023/03/28 01:09:20;;;;;;;;;;;;;;;7.36;100.00;100229.41;4964375;28;19937;-78
2023/03/28 01:11:52;;;;;;;;;;;;;;;7.26;100.00;100221.44;4958227;28;20008;-78
2023/03/28 01:14:23;;;;;;;;;;;;;;;7.25;100.00;100214.53;4948954;28;19914;-79
2023/03/28 01:16:56;;;;;;;;;;;;;;;7.26;100.00;100210.94;4935710;28;20385;-78
2023/03/28 01:19:34;;;;;;;;;;;;;;;7.26;100.00;100212.75;4966353;28;19920;-78
2023/03/28 01:22:21;;;;;;;;;;;;;;;7.21;100.00;100223.66;4920191;29;19961;-78
2023/03/28 01:25:10;;;;;;;;;;;;;;;7.18;100.00;100205.50;4939786;28;20299;-78
2023/03/28 01:28:02;;;;;;;;;;;;;;;7.15;100.00;100205.75;4954891;28;20385;-78
2023/03/28 01:30:40;;;;;;;;;;;;;;;7.15;100.00;100201.31;4950729;28;20001;-76
2023/03/28 01:33:46;;;;;;;;;;;;;;;7.17;100.00;100193.31;4949579;28;20004;-76
2023/03/28 01:36:18;;;;;;;;;;;;;;;7.14;100.00;100194.41;4951809;28;19914;-78
2023/03/28 01:38:59;;;;;;;;;;;;;;;7.14;100.00;100185.66;4946041;28;19921;-78
2023/03/28 01:41:29;;;;;;;;;;;;;;;7.15;100.00;100190.81;4949246;28;19964;-78
2023/03/28 01:44:18;;;;;;;;;;;;;;;7.11;100.00;100186.78;4921672;28;20393;-79
2023/03/28 01:46:53;;;;;;;;;;;;;;;7.09;100.00;100190.50;4962686;28;19949;-78
2023/03/28 01:49:36;;;;;;;;;;;;;;;7.10;100.00;100179.88;4949479;28;20001;-78
2023/03/28 01:52:06;;;;;;;;;;;;;;;7.11;100.00;100194.66;4943294;28;20386;-79
2023/03/28 01:54:44;;;;;;;;;;;;;;;7.13;100.00;100191.91;4959271;28;19914;-78
2023/03/28 01:57:21;;;;;;;;;;;;;;;7.13;100.00;100181.38;4913461;28;19914;-78
2023/03/28 01:59:55;;;;;;;;;;;;;;;7.12;100.00;100190.25;4948075;28;19925;-78
2023/03/28 02:02:29;;;;;;;;;;;;;;;7.14;100.00;100196.19;4968368;28;20012;-78
2023/03/28 02:05:03;;;;;;;;;;;;;;;7.14;100.00;100197.03;4950831;28;19914;-78
2023/03/28 02:07:33;;;;;;;;;;;;;;;7.16;100.00;100187.22;4953118;28;19920;-78
2023/03/28 02:10:09;;;;;;;;;;;;;;;7.18;100.00;100189.72;4966236;28;19995;-78
2023/03/28 02:13:07;;;;;;;;;;;;;;;7.19;100.00;100165.09;4966918;28;19921;-78
2023/03/28 02:15:52;;;;;;;;;;;;;;;7.18;100.00;100158.19;4956950;28;19960;-79
2023/03/28 02:18:33;;;;;;;;;;;;;;;7.18;100.00;100153.75;4958915;28;20282;-78
2023/03/28 02:21:21;;;;;;;;;;;;;;;7.16;100.00;100147.81;4969839;28;19926;-79
2023/03/28 02:24:10;;;;;;;;;;;;;;;7.18;100.00;100142.41;4930428;28;20589;-79
2023/03/28 02:26:49;;;;;;;;;;;;;;;7.19;100.00;100131.78;4937468;28;19914;-79
2023/03/28 02:29:37;;;;;;;;;;;;;;;7.15;100.00;100125.09;4962853;28;19918;-79
2023/03/28 02:32:14;;;;;;;;;;;;;;;7.19;100.00;100121.25;4963997;28;20307;-77
2023/03/28 02:34:47;;;;;;;;;;;;;;;7.19;100.00;100120.41;4948372;28;19954;-78
2023/03/28 02:37:28;;;;;;;;;;;;;;;7.21;100.00;100121.13;4934092;28;19921;-78
2023/03/28 02:40:06;;;;;;;;;;;;;;;7.25;100.00;100105.91;4955197;28;19914;-79
2023/03/28 02:42:34;;;;;;;;;;;;;;;7.25;100.00;100100.66;4943745;28;20339;-78
2023/03/28 02:45:21;;;;;;;;;;;;;;;7.28;100.00;100095.97;4950811;28;20367;-78
2023/03/28 02:48:01;;;;;;;;;;;;;;;7.32;100.00;100080.78;4950356;28;20057;-77
2023/03/28 02:50:37;;;;;;;;;;;;;;;7.32;100.00;100086.88;4939459;28;19918;-77
2023/03/28 02:53:21;;;;;;;;;;;;;;;7.35;100.00;100079.66;4954352;28;19921;-78
2023/03/28 02:56:00;;;;;;;;;;;;;;;7.36;100.00;100076.09;4946916;28;19918;-80
2023/03/28 02:58:52;;;;;;;;;;;;;;;7.36;100.00;100070.84;4960432;28;20385;-77
2023/03/28 03:01:27;;;;;;;;;;;;;;;7.39;100.00;100075.81;4955954;28;19925;-77
2023/03/28 03:03:56;;;;;;;;;;;;;;;7.38;100.00;100058.38;4948483;28;19914;-77
2023/03/28 03:06:24;;;;;;;;;;;;;;;7.41;100.00;100058.94;4940445;28;20033;-78
2023/03/28 03:08:53;;;;;;;;;;;;;;;7.39;100.00;100045.09;4967041;28;19925;-80
2023/03/28 03:11:26;;;;;;;;;;;;;;;7.42;100.00;100041.38;4956282;28;20397;-80
2023/03/28 03:13:58;;;;;;;;;;;;;;;7.41;100.00;100023.91;4934664;28;19915;-77
2023/03/28 03:16:30;;;;;;;;;;;;;;;7.42;100.00;100031.66;4963563;28;20453;-81
2023/03/28 03:19:00;;;;;;;;;;;;;;;7.45;100.00;100017.44;4965385;28;19914;-79
2023/03/28 03:21:30;;;;;;;;;;;;;;;7.43;100.00;100014.09;4947558;28;20383;-80
2023/03/28 03:23:59;;;;;;;;;;;;;;;7.42;100.00;99997.47;4935413;28;19917;-80
2023/03/28 03:26:27;;;;;;;;;;;;;;;7.42;100.00;99983.53;4950916;28;20371;-78
2023/03/28 03:29:01;;;;;;;;;;;;;;;7.41;100.00;99980.06;4934941;28;20398;-80
2023/03/28 03:31:31;;;;;;;;;;;;;;;7.41;100.00;99972.16;4928930;28;19926;-80
2023/03/28 03:34:16;;;;;;;;;;;;;;;7.42;100.00;99976.44;4955787;28;19936;-80
2023/03/28 03:36:51;;;;;;;;;;;;;;;7.35;100.00;99959.56;4936526;28;19933;-80
2023/03/28 03:39:19;;;;;;;;;;;;;;;7.37;100.00;99957.63;4932977;28;19949;-79
2023/03/28 03:41:49;;;;;;;;;;;;;;;7.36;100.00;99942.00;4950254;28;19927;-80
2023/03/28 03:44:19;;;;;;;;;;;;;;;7.33;100.00;99940.44;4960798;28;20401;-78
2023/03/28 03:46:48;;;;;;;;;;;;;;;7.29;100.00;99937.25;4960641;28;19921;-80
2023/03/28 03:49:17;;;;;;;;;;;;;;;7.27;100.00;99938.38;4971147;28;19956;-80
2023/03/28 03:51:45;;;;;;;;;;;;;;;7.26;100.00;99940.16;4951685;28;19921;-78
2023/03/28 03:54:17;;;;;;;;;;;;;;;7.28;100.00;99926.88;4930345;29;20332;-80
2023/03/28 03:56:45;;;;;;;;;;;;;;;7.29;100.00;99910.16;4944080;28;19949;-78
2023/03/28 03:59:14;;;;;;;;;;;;;;;7.26;100.00;99921.75;4958975;28;19973;-79
2023/03/28 04:01:44;;;;;;;;;;;;;;;7.31;100.00;99916.94;4957844;28;20416;-79
2023/03/28 04:04:35;;;;;;;;;;;;;;;7.30;100.00;99910.03;4960742;28;19953;-80
2023/03/28 04:07:14;;;;;;;;;;;;;;;7.31;100.00;99910.88;4955062;28;20428;-79
2023/03/28 04:09:43;;;;;;;;;;;;;;;7.31;100.00;99916.13;4942751;29;19919;-79
2023/03/28 04:12:11;;;;;;;;;;;;;;;7.32;100.00;99913.34;4961912;28;20280;-79
2023/03/28 04:14:46;;;;;;;;;;;;;;;7.34;100.00;99897.44;4955491;28;20383;-79
2023/03/28 04:17:40;;;;;;;;;;;;;;;7.38;100.00;99900.59;4953208;28;19914;-79
2023/03/28 04:20:12;;;;;;;;;;;;;;;7.34;100.00;99891.34;4943023;28;19921;-79
2023/03/28 04:23:00;;;;;;;;;;;;;;;7.36;100.00;99892.03;4971798;28;19921;-79
2023/03/28 04:25:30;;;;;;;;;;;;;;;7.36;100.00;99892.03;4926603;29;19926;-80
2023/03/28 04:28:04;;;;;;;;;;;;;;;7.32;100.00;99880.97;4952452;28;19914;-80
2023/03/28 04:30:37;;;;;;;;;;;;;;;7.31;100.00;99871.44;4965217;28;19973;-80
2023/03/28 04:33:27;;;;;;;;;;;;;;;7.31;100.00;99866.97;4927255;28;19922;-80
2023/03/28 04:36:01;;;;;;;;;;;;;;;7.31;100.00;99864.34;4967386;28;19914;-79
2023/03/28 04:38:35;;;;;;;;;;;;;;;7.29;100.00;99861.00;4954346;28;19918;-80
2023/03/28 04:41:18;;;;;;;;;;;;;;;7.29;100.00;99845.25;4956633;28;19919;-79
2023/03/28 04:44:04;;;;;;;;;;;;;;;7.30;100.00;99844.28;4972487;28;19914;-80
2023/03/28 04:46:39;;;;;;;;;;;;;;;7.34;100.00;99836.97;4957797;28;20056;-79
2023/03/28 04:49:13;;;;;;;;;;;;;;;7.31;100.00;99840.69;4935393;29;20279;-80
2023/03/28 04:51:42;;;;;;;;;;;;;;;7.32;100.00;99849.41;4939919;28;19918;-80
2023/03/28 04:54:12;;;;;;;;;;;;;;;7.31;100.00;99842.50;4937631;28;19969;-80
2023/03/28 04:56:47;;;;;;;;;;;;;;;7.35;100.00;99845.66;4971807;28;19918;-79
2023/03/28 04:59:20;;;;;;;;;;;;;;;7.36;100.00;99842.91;4948155;28;19918;-80
2023/03/28 05:01:50;;;;;;;;;;;;;;;7.37;100.00;99835.84;4952822;28;19929;-80
2023/03/28 05:04:42;;;;;;;;;;;;;;;7.37;100.00;99831.44;4957972;28;19969;-80
2023/03/28 05:07:10;;;;;;;;;;;;;;;7.39;100.00;99813.69;4959035;28;20282;-80
2023/03/28 05:09:38;;;;;;;;;;;;;;;7.39;100.00;99829.47;4951073;28;19918;-79
2023/03/28 05:12:06;;;;;;;;;;;;;;;7.40;100.00;99817.16;4959889;28;20339;-79
2023/03/28 05:14:50;;;;;;;;;;;;;;;7.40;100.00;99817.16;4937033;29;19946;-80
2023/03/28 05:17:17;;;;;;;;;;;;;;;7.44;100.00;99805.38;4916301;28;19925;-79
2023/03/28 05:20:15;;;;;;;;;;;;;;;7.44;100.00;99808.03;4956122;28;19914;-79
2023/03/28 05:22:51;;;;;;;;;;;;;;;7.46;100.00;99808.72;4936356;28;19960;-79
2023/03/28 05:25:20;;;;;;;;;;;;;;;7.48;100.00;99796.28;4947568;28;19914;-79
2023/03/28 05:27:48;;;;;;;;;;;;;;;7.50;100.00;99790.88;4948781;28;20350;-80
2023/03/28 05:30:16;;;;;;;;;;;;;;;7.50;100.00;99783.78;4946190;28;20009;-80
2023/03/28 05:32:44;;;;;;;;;;;;;;;7.49;100.00;99773.41;4966790;28;19953;-80
2023/03/28 05:35:15;;;;;;;;;;;;;;;7.52;100.00;99773.97;4944933;28;19980;-80
2023/03/28 05:37:46;;;;;;;;;;;;;;;7.51;100.00;99771.50;4926497;29;20363;-80
2023/03/28 05:40:15;;;;;;;;;;;;;;;7.53;100.00;99778.25;4952830;28;20322;-79
2023/03/28 05:42:43;;;;;;;;;;;;;;;7.55;100.00;99765.81;4969470;28;20000;-80
2023/03/28 05:45:14;;;;;;;;;;;;;;;7.55;100.00;99751.81;4952322;28;19960;-79
2023/03/28 05:48:05;;;;;;;;;;;;;;;7.57;100.00;99742.81;4967167;28;19916;-80
2023/03/28 05:50:37;;;;;;;;;;;;;;;7.64;100.00;99747.53;4961464;28;19914;-79
2023/03/28 05:53:07;;;;;;;;;;;;;;;7.65;100.00;99738.66;4933891;28;19910;-79
2023/03/28 05:55:37;;;;;;;;;;;;;;;7.66;100.00;99737.69;4936830;28;20004;-80
2023/03/28 05:58:06;;;;;;;;;;;;;;;7.67;100.00;99732.28;4957268;28;20005;-80
2023/03/28 06:00:41;;;;;;;;;;;;;;;7.71;100.00;99738.06;4929192;28;19918;-80
2023/03/28 06:03:10;;;;;;;;;;;;;;;7.75;100.00;99734.19;4959971;28;19914;-80
2023/03/28 06:05:40;;;;;;;;;;;;;;;7.79;100.00;99743.44;4932499;28;20000;-79
2023/03/28 06:08:29;;;;;;;;;;;;;;;7.83;100.00;99757.16;4964870;28;20362;-80
2023/03/28 06:11:03;;;;;;;;;;;;;;;7.87;100.00;99760.34;4939264;28;19926;-79
2023/03/28 06:13:47;;;;;;;;;;;;;;;7.91;100.00;99746.75;4934349;28;19949;-80
2023/03/28 06:16:15;;;;;;;;;;;;;;;7.92;100.00;99747.56;4951472;28;20358;-80
2023/03/28 06:18:43;;;;;;;;;;;;;;;7.98;100.00;99738.28;4946177;28;19918;-80
2023/03/28 06:21:10;;;;;;;;;;;;;;;8.00;100.00;99738.94;4957505;28;19918;-79
2023/03/28 06:23:40;;;;;;;;;;;;;;;8.03;100.00;99731.59;4920412;29;20390;-80
2023/03/28 06:26:19;;;;;;;;;;;;;;;8.08;100.00;99739.06;4926324;28;19910;-79
2023/03/28 06:28:47;;;;;;;;;;;;;;;8.08;100.00;99731.16;4960908;28;19925;-80
2023/03/28 06:31:22;;;;;;;;;;;;;;;8.11;100.00;99728.22;4952635;28;19933;-79
2023/03/28 06:33:49;;;;;;;;;;;;;;;8.12;100.00;99718.53;4972492;28;19910;-79
2023/03/28 06:36:22;;;;;;;;;;;;;;;8.14;100.00;99721.84;4953361;28;19917;-79
2023/03/28 06:38:53;;;;;;;;;;;;;;;8.13;100.00;99717.56;4953601;28;19976;-79
2023/03/28 06:41:24;;;;;;;;;;;;;;;8.14;100.00;99708.66;4946292;28;19945;-79
2023/03/28 06:43:52;;;;;;;;;;;;;;;8.16;100.00;99719.88;4971081;28;19914;-80
2023/03/28 06:46:37;;;;;;;;;;;;;;;8.14;100.00;99717.41;4977227;28;19913;-79
2023/03/28 06:49:06;;;;;;;;;;;;;;;8.16;100.00;99707.56;4975962;28;19948;-79
2023/03/28 06:51:53;;;;;;;;;;;;;;;8.14;100.00;99698.97;4953695;28;19914;-79
2023/03/28 06:54:20;;;;;;;;;;;;;;;8.12;100.00;99692.22;4967558;28;19966;-79
2023/03/28 06:56:48;;;;;;;;;;;;;;;8.12;100.00;99684.31;4937704;28;19910;-79
2023/03/28 06:59:17;;;;;;;;;;;;;;;8.15;100.00;99690.13;4925164;28;19933;-79
2023/03/28 07:01:51;;;;;;;;;;;;;;;8.16;100.00;99699.66;4938723;28;19914;-79
2023/03/28 07:04:24;;;;;;;;;;;;;;;8.17;100.00;99685.53;4940301;28;20316;-79
2023/03/28 07:06:53;;;;;;;;;;;;;;;8.17;100.00;99703.94;4967486;28;20662;-78
2023/03/28 07:09:21;;;;;;;;;;;;;;;8.20;100.00;99692.31;4967882;28;19988;-79
2023/03/28 07:11:55;;;;;;;;;;;;;;;8.18;100.00;99689.84;4957555;28;20359;-79
2023/03/28 07:14:23;;;;;;;;;;;;;;;8.22;100.00;99686.91;4957210;28;19917;-79
2023/03/28 07:16:50;;;;;;;;;;;;;;;8.22;100.00;99673.75;4973724;28;19934;-79
2023/03/28 07:19:18;;;;;;;;;;;;;;;8.23;100.00;99684.13;4957652;28;19964;-79
2023/03/28 07:21:47;;;;;;;;;;;;;;;8.20;100.00;99679.16;4964772;28;20061;-79
2023/03/28 07:24:15;;;;;;;;;;;;;;;8.20;100.00;99668.63;4947890;28;20009;-80
2023/03/28 07:26:55;;;;;;;;;;;;;;;8.22;100.00;99653.50;4914185;28;20022;-78
2023/03/28 07:29:26;;;;;;;;;;;;;;;8.23;100.00;99651.69;4873266;28;19929;-78
2023/03/28 07:31:55;;;;;;;;;;;;;;;8.24;100.00;99659.44;4942469;28;19960;-79
2023/03/28 07:34:26;;;;;;;;;;;;;;;8.27;100.00;99640.72;4952927;28;19922;-79
2023/03/28 07:36:54;;;;;;;;;;;;;;;8.29;100.00;99633.50;4956819;28;19918;-79
2023/03/28 07:39:53;;;;;;;;;;;;;;;8.33;100.00;99660.34;4941381;28;19922;-78
2023/03/28 07:42:22;;;;;;;;;;;;;;;8.37;100.00;99652.97;4951990;28;20413;-78
2023/03/28 07:44:51;;;;;;;;;;;;;;;8.36;100.00;99646.06;4936008;28;19910;-78
2023/03/28 07:47:20;;;;;;;;;;;;;;;8.38;100.00;99644.09;4955035;28;20004;-78
2023/03/28 07:49:50;;;;;;;;;;;;;;;8.39;100.00;99645.75;4949518;28;20394;-78
2023/03/28 07:52:20;;;;;;;;;;;;;;;8.36;100.00;99640.81;4920383;28;19948;-78
2023/03/28 07:54:50;;;;;;;;;;;;;;;8.34;100.00;99633.06;4948123;28;19918;-78
2023/03/28 07:57:19;;;;;;;;;;;;;;;8.31;100.00;99622.81;4931887;28;19914;-78
2023/03/28 08:00:12;;;;;;;;;;;;;;;8.30;100.00;99624.63;4947796;29;19919;-79
2023/03/28 08:02:41;;;;;;;;;;;;;;;8.34;100.00;99622.53;4919238;28;20000;-79
2023/03/28 08:05:09;;;;;;;;;;;;;;;8.31;100.00;99628.09;4952012;28;20017;-78
2023/03/28 08:07:37;;;;;;;;;;;;;;;8.34;100.00;99630.41;4918660;28;19929;-79
2023/03/28 08:10:06;;;;;;;;;;;;;;;8.39;100.00;99620.25;4916384;29;19938;-79
2023/03/28 08:12:36;;;;;;;;;;;;;;;8.38;100.00;99628.28;4948232;29;19910;-79
2023/03/28 08:15:04;;;;;;;;;;;;;;;8.37;100.00;99626.66;4932917;28;19922;-79
2023/03/28 08:17:33;;;;;;;;;;;;;;;8.38;100.00;99634.41;4934876;29;20590;-79
2023/03/28 08:20:01;;;;;;;;;;;;;;;8.40;100.00;99634.25;4920217;29;19918;-78
2023/03/28 08:22:30;;;;;;;;;;;;;;;8.37;100.00;99634.53;4946962;29;20356;-78
2023/03/28 08:25:30;;;;;;;;;;;;;;;8.37;100.00;99631.91;4879085;29;20356;-79
2023/03/28 08:27:59;;;;;;;;;;;;;;;8.38;100.00;99641.47;4949975;29;19910;-79
2023/03/28 08:30:27;;;;;;;;;;;;;;;8.40;100.00;99636.88;4951130;29;19997;-79
2023/03/28 08:33:03;;;;;;;;;;;;;;;8.42;100.00;99629.66;4917919;29;19911;-79
2023/03/28 08:35:32;;;;;;;;;;;;;;;8.45;100.00;99634.63;4938820;29;19918;-78
2023/03/28 08:38:04;;;;;;;;;;;;;;;8.50;100.00;99634.19;4916515;29;19914;-79
2023/03/28 08:40:35;;;;;;;;;;;;;;;8.55;100.00;99630.13;4933004;29;20013;-79
2023/03/28 08:43:12;;;;;;;;;;;;;;;8.61;100.00;99635.78;4947061;28;19928;-79
2023/03/28 08:45:58;;;;;;;;;;;;;;;8.62;100.00;99627.72;4919130;29;19918;-79
2023/03/28 08:48:27;;;;;;;;;;;;;;;8.68;100.00;99623.63;4942256;29;19922;-80
2023/03/28 08:51:00;;;;;;;;;;;;;;;8.70;100.00;99629.59;4934409;29;19914;-79
2023/03/28 08:53:52;;;;;;;;;;;;;;;8.73;100.00;99625.84;4904277;28;19925;-79
2023/03/28 08:56:20;;;;;;;;;;;;;;;8.76;100.00;99626.34;4919213;29;19914;-79
2023/03/28 08:59:03;;;;;;;;;;;;;;;8.80;100.00;99624.25;4961933;28;19918;-78
2023/03/28 09:01:32;;;;;;;;;;;;;;;8.83;100.00;99613.41;4946346;28;20327;-79
2023/03/28 09:04:19;;;;;;;;;;;;;;;8.85;100.00;99602.69;5166785;27;20001;-79
2023/03/28 09:06:55;;;;;;;;;;;;;;;8.88;100.00;99608.50;5143161;27;19922;-78
2023/03/28 09:09:31;;;;;;;;;;;;;;;8.92;100.00;99614.28;5150195;27;20029;-78
2023/03/28 09:12:25;;;;;;;;;;;;;;;8.94;100.00;99609.69;5140130;27;19923;-78
2023/03/28 09:15:11;;;;;;;;;;;;;;;8.97;100.00;99606.72;5131733;27;20014;-78
2023/03/28 09:17:51;;;;;;;;;;;;;;;9.01;100.00;99602.00;5130268;27;20287;-79
2023/03/28 09:20:39;;;;;;;;;;;;;;;9.04;100.00;99597.25;5150330;27;19968;-79
2023/03/28 09:23:31;;;;;;;;;;;;;;;9.13;100.00;99599.91;5120402;27;20385;-78
2023/03/28 09:26:27;;;;;;;;;;;;;;;9.20;100.00;99595.69;5115089;27;20001;-79
2023/03/28 09:29:05;;;;;;;;;;;;;;;9.29;100.00;99589.47;5137836;27;19929;-79
2023/03/28 09:31:37;;;;;;;;;;;;;;;9.37;100.00;99577.28;5119587;27;19998;-78
2023/03/28 09:34:07;;;;;;;;;;;;;;;9.44;100.00;99575.69;5156208;27;20443;-78
2023/03/28 09:36:45;;;;;;;;;;;;;;;9.52;100.00;99572.25;5141685;27;19966;-79
2023/03/28 09:39:20;;;;;;;;;;;;;;;9.61;100.00;99568.66;5143758;27;19928;-78
2023/03/28 09:42:00;;;;;;;;;;;;;;;9.70;100.00;99573.97;5140288;27;19945;-79
2023/03/28 09:45:11;;;;;;;;;;;;;;;9.74;100.00;99565.56;5118286;27;20378;-79
2023/03/28 09:47:52;;;;;;;;;;;;;;;9.81;100.00;99565.72;5149804;27;19915;-79
2023/03/28 09:50:24;;;;;;;;;;;;;;;9.82;100.00;99564.75;5122874;27;19923;-79
2023/03/28 09:52:57;;;;;;;;;;;;;;;9.78;100.00;99555.50;5150909;27;20371;-79
2023/03/28 09:55:29;;;;;;;;;;;;;;;9.76;100.00;99549.56;5128353;27;19984;-78
2023/03/28 09:58:01;;;;;;;;;;;;;;;9.78;100.00;99547.56;5122369;27;19923;-78
2023/03/28 10:00:36;;;;;;;;;;;;;;;9.81;100.00;99539.34;5145517;27;20014;-79
2023/03/28 10:03:31;;;;;;;;;;;;;;;9.82;100.00;99548.09;5145575;27;20279;-78
2023/03/28 10:06:19;;;;;;;;;;;;;;;9.83;100.00;99544.44;5123932;27;19967;-79
2023/03/28 10:08:50;;;;;;;;;;;;;;;9.84;100.00;99546.13;5126284;27;19915;-79
2023/03/28 10:11:26;;;;;;;;;;;;;;;9.83;100.00;99547.94;5120568;27;19919;-78
2023/03/28 10:13:55;;;;;;;;;;;;;;;9.87;100.00;99549.28;5130711;27;20631;-79
2023/03/28 10:16:23;;;;;;;;;;;;;;;9.95;100.00;99539.69;5101970;27;20430;-78
2023/03/28 10:19:13;;;;;;;;;;;;;;;10.01;100.00;99529.31;5126328;27;20002;-78
2023/03/28 10:22:29;;;;;;;;;;;;;;;10.10;100.00;99529.31;5115195;27;19911;-78
2023/03/28 10:24:57;;;;;;;;;;;;;;;10.17;100.00;99536.44;5129167;27;20359;-78
2023/03/28 10:27:36;;;;;;;;;;;;;;;10.26;100.00;99525.84;5131817;27;20002;-78
2023/03/28 10:30:21;;;;;;;;;;;;;;;10.34;100.00;99528.50;5116694;27;19911;-78
2023/03/28 10:33:10;;;;;;;;;;;;;;;10.49;100.00;99522.59;5110980;27;19922;-78
2023/03/28 10:35:56;;;;;;;;;;;;;;;10.69;100.00;99509.03;5114582;27;20378;-79
2023/03/28 10:38:32;;;;;;;;;;;;;;;10.85;100.00;99519.56;5130681;27;19915;-78
2023/03/28 10:41:33;;;;;;;;;;;;;;;11.04;100.00;99512.22;5092033;27;19919;-78
2023/03/28 10:44:16;;;;;;;;;;;;;;;11.21;100.00;99512.16;5127992;27;19924;-78
2023/03/28 10:46:51;;;;;;;;;;;;;;;11.32;100.00;99505.69;5112259;27;19923;-78
2023/03/28 10:49:29;;;;;;;;;;;;;;;11.45;100.00;99511.22;5110999;27;19911;-79
2023/03/28 10:52:18;;;;;;;;;;;;;;;11.45;100.00;99505.94;5108050;27;20343;-78
2023/03/28 10:55:19;;;;;;;;;;;;;;;11.48;100.00;99507.41;5110961;27;20397;-78
2023/03/28 10:58:26;;;;;;;;;;;;;;;11.58;100.00;99509.84;5089989;27;20367;-78
2023/03/28 11:01:00;;;;;;;;;;;;;;;11.72;100.00;99509.09;5122102;27;19963;-79
2023/03/28 11:03:46;;;;;;;;;;;;;;;11.85;100.00;99520.94;5112337;27;20357;-78
2023/03/28 11:06:21;;;;;;;;;;;;;;;12.00;100.00;99518.34;5094539;27;19922;-78
2023/03/28 11:08:50;;;;;;;;;;;;;;;12.07;100.00;99521.13;5108389;27;19919;-79
2023/03/28 11:11:35;;;;;;;;;;;;;;;12.10;100.00;99516.31;5092842;28;19923;-79
2023/03/28 11:14:04;;;;;;;;;;;;;;;12.10;100.00;99516.31;5118829;27;19924;-78
2023/03/28 11:16:41;;;;;;;;;;;;;;;12.10;100.00;99518.97;5095818;28;20352;-76
2023/03/28 11:19:45;;;;;;;;;;;;;;;12.14;100.00;99506.19;5108516;27;19998;-76
2023/03/28 11:22:25;;;;;;;;;;;;;;;12.13;100.00;99505.38;5104747;27;19920;-78
2023/03/28 11:24:56;;;;;;;;;;;;;;;12.17;100.00;99511.13;5097084;27;19915;-78
2023/03/28 11:28:09;;;;;;;;;;;;;;;12.29;100.00;99503.59;5056943;28;20041;-78
2023/03/28 11:30:44;;;;;;;;;;;;;;;12.34;100.00;99503.06;5090109;28;19923;-78
2023/03/28 11:33:37;;;;;;;;;;;;;;;12.30;100.00;99505.22;5098765;27;20380;-79
2023/03/28 11:36:15;;;;;;;;;;;;;;;12.26;100.00;99503.94;5117990;27;19923;-79
2023/03/28 11:38:50;;;;;;;;;;;;;;;12.18;100.00;99504.84;5105313;27;19919;-79
2023/03/28 11:41:22;;;;;;;;;;;;;;;12.15;100.00;99503.34;5125124;27;19924;-78
2023/03/28 11:44:36;;;;;;;;;;;;;;;12.14;100.00;99512.31;5105676;27;19920;-78
2023/03/28 11:47:11;;;;;;;;;;;;;;;12.13;100.00;99508.03;5114459;27;20011;-78
2023/03/28 11:49:52;;;;;;;;;;;;;;;12.13;100.00;99500.09;5101744;27;19916;-78
2023/03/28 11:52:46;;;;;;;;;;;;;;;12.18;100.00;99501.34;5124086;27;19969;-79
2023/03/28 11:55:23;;;;;;;;;;;;;;;12.20;100.00;99500.16;5122163;27;20376;-78
2023/03/28 11:57:53;;;;;;;;;;;;;;;12.24;100.00;99506.78;5127625;27;20369;-78
2023/03/28 12:00:29;;;;;;;;;;;;;;;12.25;100.00;99507.59;5093034;28;19927;-79
2023/03/28 12:03:13;;;;;;;;;;;;;;;12.26;100.00;99504.75;5085834;28;20341;-78
2023/03/28 12:06:00;;;;;;;;;;;;;;;12.30;100.00;99507.03;5098850;27;19980;-78
2023/03/28 12:08:35;;;;;;;;;;;;;;;12.36;100.00;99509.81;5114388;27;19916;-78
2023/03/28 12:11:07;;;;;;;;;;;;;;;12.47;100.00;99502.44;5128607;27;19920;-78
2023/03/28 12:14:23;;;;;;;;;;;;;;;12.60;100.00;99499.16;5115955;27;19920;-78
2023/03/28 12:16:54;;;;;;;;;;;;;;;12.74;100.00;99503.66;5101766;27;20317;-78
2023/03/28 12:19:39;;;;;;;;;;;;;;;12.91;100.00;99511.44;5103205;27;19919;-78
2023/03/28 12:22:20;;;;;;;;;;;;;;;13.10;100.00;99504.75;5114941;27;19923;-78
2023/03/28 12:24:59;;;;;;;;;;;;;;;13.30;100.00;99506.81;5107841;27;19923;-79
2023/03/28 12:27:37;;;;;;;;;;;;;;;13.56;100.00;99497.56;5082517;27;19922;-78
2023/03/28 12:30:24;;;;;;;;;;;;;;;13.81;100.00;99504.38;5104249;27;19920;-78
2023/03/28 12:33:13;;;;;;;;;;;;;;;13.91;100.00;99490.75;5115074;27;20320;-78
2023/03/28 12:36:02;;;;;;;;;;;;;;;14.08;100.00;99483.34;5102405;27;20376;-78
2023/03/28 12:38:46;;;;;;;;;;;;;;;14.23;100.00;99475.28;5118754;27;19923;-77
2023/03/28 12:41:25;;;;;;;;;;;;;;;14.42;100.00;99475.63;5098601;28;19923;-79
2023/03/28 12:44:08;;;;;;;;;;;;;;;14.60;100.00;99477.81;5114010;27;19998;-78
2023/03/28 12:46:47;;;;;;;;;;;;;;;14.53;100.00;99472.44;5118581;27;20383;-78
2023/03/28 12:49:16;;;;;;;;;;;;;;;14.43;100.00;99471.97;5110542;27;20372;-78
2023/03/28 12:51:47;;;;;;;;;;;;;;;14.47;100.00;99465.25;5105582;27;19925;-78
2023/03/28 12:54:17;;;;;;;;;;;;;;;14.55;100.00;99464.25;5116984;27;19919;-78
2023/03/28 12:56:46;;;;;;;;;;;;;;;14.66;100.00;99460.22;5110877;28;19975;-78
2023/03/28 12:59:40;;;;;;;;;;;;;;;14.64;100.00;99450.63;5115454;27;19930;-78
2023/03/28 13:02:19;;;;;;;;;;;;;;;14.49;100.00;99447.25;5088594;28;19924;-78
2023/03/28 13:04:59;;;;;;;;;;;;;;;14.31;100.00;99448.56;5116285;28;19920;-78
2023/03/28 13:07:41;;;;;;;;;;;;;;;14.22;100.00;99458.50;5106990;28;20387;-79
2023/03/28 13:10:23;;;;;;;;;;;;;;;14.13;100.00;99451.69;5106132;28;20574;-78
2023/03/28 13:13:10;;;;;;;;;;;;;;;14.13;100.00;99443.72;5109305;28;19919;-78
2023/03/28 13:15:52;;;;;;;;;;;;;;;14.11;100.00;99443.13;5126307;28;19927;-78
2023/03/28 13:18:27;;;;;;;;;;;;;;;14.18;100.00;99443.97;5109619;28;19916;-78
2023/03/28 13:20:58;;;;;;;;;;;;;;;14.28;100.00;99438.34;5117539;27;19915;-78
2023/03/28 13:23:30;;;;;;;;;;;;;;;14.24;100.00;99442.38;5121432;28;19915;-78
2023/03/28 13:26:01;;;;;;;;;;;;;;;14.10;100.00;99444.13;5100395;28;20616;-78
2023/03/28 13:28:29;;;;;;;;;;;;;;;13.92;100.00;99448.06;5116030;28;19922;-78
2023/03/28 13:31:06;;;;;;;;;;;;;;;13.76;100.00;99457.94;5102137;28;20002;-78